sensor_id;sensor_type;location;lat;lon;timestamp;pressure;altitude;pressure_sealevel;temperature;humidity
13767;BME280;47980;48.794;9.176;2023-03-15T00:00:13;97837.69;;;4.00;96.12
13767;BME280;47980;48.794;9.176;2023-03-15T00:02:45;97837.53;;;4.10;95.42
13767;BME280;47980;48.794;9.176;2023-03-15T00:05:18;97850.88;;;4.42;94.43
13767;BME280;47980;48.794;9.176;2023-03-15T00:07:50;97850.72;;;4.05;92.55
13767;BME280;47980;48.794;9.176;2023-03-15T00:10:22;97861.72;;;4.07;94.74
13767;BME280;47980;48.794;9.176;2023-03-15T00:12:54;97858.13;;;4.17;94.39
13767;BME280;47980;48.794;9.176;2023-03-15T00:15:26;97868.56;;;4.22;93.81
13767;BME280;47980;48.794;9.176;2023-03-15T00:17:57;97879.34;;;4.21;93.96
13767;BME280;47980;48.794;9.176;2023-03-15T00:20:35;97889.56;;;4.22;94.33
13767;BME280;47980;48.794;9.176;2023-03-15T00:23:08;97894.13;;;3.98;94.04
13767;BME280;47980;48.794;9.176;2023-03-15T00:25:42;97901.16;;;4.02;93.75
13767;BME280;47980;48.794;9.176;2023-03-15T00:28:13;97908.75;;;4.04;91.90
13767;BME280;47980;48.794;9.176;2023-03-15T00:30:45;97912.84;;;4.10;91.99
13767;BME280;47980;48.794;9.176;2023-03-15T00:33:17;97924.97;;;4.25;92.73
13767;BME280;47980;48.794;9.176;2023-03-15T00:35:50;97922.81;;;4.27;94.20
13767;BME280;47980;48.794;9.176;2023-03-15T00:38:22;97907.78;;;4.32;92.20
13767;BME280;47980;48.794;9.176;2023-03-15T00:40:54;97925.31;;;4.18;91.11
13767;BME280;47980;48.794;9.176;2023-03-15T00:43:25;97925.31;;;4.18;92.04
13767;BME280;47980;48.794;9.176;2023-03-15T00:45:57;97927.44;;;4.16;93.58
13767;BME280;47980;48.794;9.176;2023-03-15T00:48:29;97924.97;;;4.06;94.59
13767;BME280;47980;48.794;9.176;2023-03-15T00:51:04;97932.63;;;4.21;93.41
13767;BME280;47980;48.794;9.176;2023-03-15T00:53:38;97937.16;;;4.16;93.67
13767;BME280;47980;48.794;9.176;2023-03-15T00:56:12;97946.53;;;4.22;93.31
13767;BME280;47980;48.794;9.176;2023-03-15T00:58:44;97946.91;;;3.96;92.53
13767;BME280;47980;48.794;9.176;2023-03-15T01:01:17;97953.84;;;4.25;93.82
13767;BME280;47980;48.794;9.176;2023-03-15T01:03:50;97960.03;;;4.15;93.09
13767;BME280;47980;48.794;9.176;2023-03-15T01:06:24;97958.31;;;4.05;93.34
13767;BME280;47980;48.794;9.176;2023-03-15T01:08:57;97966.19;;;3.68;93.17
13767;BME280;47980;48.794;9.176;2023-03-15T01:11:29;97963.88;;;3.85;94.04
13767;BME280;47980;48.794;9.176;2023-03-15T01:14:01;97969.34;;;3.89;94.39
13767;BME280;47980;48.794;9.176;2023-03-15T01:16:35;97976.03;;;3.76;94.70
13767;BME280;47980;48.794;9.176;2023-03-15T01:19:06;97969.97;;;3.37;97.88
13767;BME280;47980;48.794;9.176;2023-03-15T01:21:40;97974.75;;;3.54;95.87
13767;BME280;47980;48.794;9.176;2023-03-15T01:24:12;97981.31;;;3.52;95.06
13767;BME280;47980;48.794;9.176;2023-03-15T01:26:43;97981.91;;;3.49;95.64
13767;BME280;47980;48.794;9.176;2023-03-15T01:29:15;97983.56;;;3.40;94.67
13767;BME280;47980;48.794;9.176;2023-03-15T01:31:47;97978.41;;;3.34;94.62
13767;BME280;47980;48.794;9.176;2023-03-15T01:34:18;97972.72;;;3.27;95.48
13767;BME280;47980;48.794;9.176;2023-03-15T01:36:52;97983.91;;;3.33;95.77
13767;BME280;47980;48.794;9.176;2023-03-15T01:39:24;97986.97;;;3.40;95.00
13767;BME280;47980;48.794;9.176;2023-03-15T01:41:56;97982.34;;;3.32;95.26
13767;BME280;47980;48.794;9.176;2023-03-15T01:44:49;97992.72;;;3.18;95.64
13767;BME280;47980;48.794;9.176;2023-03-15T01:47:21;97995.56;;;3.22;96.19
13767;BME280;47980;48.794;9.176;2023-03-15T01:49:59;98001.53;;;3.27;96.26
13767;BME280;47980;48.794;9.176;2023-03-15T01:52:36;98010.22;;;3.23;96.69
13767;BME280;47980;48.794;9.176;2023-03-15T01:55:08;98002.06;;;3.00;96.33
13767;BME280;47980;48.794;9.176;2023-03-15T01:57:44;98009.53;;;3.12;95.94
13767;BME280;47980;48.794;9.176;2023-03-15T02:00:19;98015.81;;;3.16;95.70
13767;BME280;47980;48.794;9.176;2023-03-15T02:02:53;98010.72;;;3.01;95.30
13767;BME280;47980;48.794;9.176;2023-03-15T02:05:29;98019.63;;;3.00;95.69
13767;BME280;47980;48.794;9.176;2023-03-15T02:08:05;98023.50;;;3.07;96.16
13767;BME280;47980;48.794;9.176;2023-03-15T02:10:41;98020.38;;;3.05;96.22
13767;BME280;47980;48.794;9.176;2023-03-15T02:13:17;98024.16;;;2.94;93.58
13767;BME280;47980;48.794;9.176;2023-03-15T02:15:49;98023.47;;;2.83;95.06
13767;BME280;47980;48.794;9.176;2023-03-15T02:18:22;98031.22;;;2.94;94.60
13767;BME280;47980;48.794;9.176;2023-03-15T02:21:00;98028.28;;;3.00;94.29
13767;BME280;47980;48.794;9.176;2023-03-15T02:23:35;98026.63;;;3.09;92.34
13767;BME280;47980;48.794;9.176;2023-03-15T02:26:15;98025.09;;;3.03;91.21
13767;BME280;47980;48.794;9.176;2023-03-15T02:28:50;98031.66;;;3.01;91.77
13767;BME280;47980;48.794;9.176;2023-03-15T02:31:24;98033.81;;;2.94;94.28
13767;BME280;47980;48.794;9.176;2023-03-15T02:33:55;98033.28;;;2.97;94.38
13767;BME280;47980;48.794;9.176;2023-03-15T02:36:28;98042.75;;;2.93;93.81
13767;BME280;47980;48.794;9.176;2023-03-15T02:39:11;98046.94;;;2.94;95.25
13767;BME280;47980;48.794;9.176;2023-03-15T02:41:46;98038.81;;;2.95;95.14
13767;BME280;47980;48.794;9.176;2023-03-15T02:44:22;98052.22;;;2.88;95.16
13767;BME280;47980;48.794;9.176;2023-03-15T02:46:59;98054.66;;;2.80;95.44
13767;BME280;47980;48.794;9.176;2023-03-15T02:49:35;98060.06;;;2.88;94.74
13767;BME280;47980;48.794;9.176;2023-03-15T02:52:08;98067.69;;;2.85;93.89
13767;BME280;47980;48.794;9.176;2023-03-15T02:54:41;98069.53;;;2.84;93.36
13767;BME280;47980;48.794;9.176;2023-03-15T02:57:15;98076.63;;;2.84;92.38
13767;BME280;47980;48.794;9.176;2023-03-15T02:59:48;98087.34;;;2.87;91.88
13767;BME280;47980;48.794;9.176;2023-03-15T03:02:20;98096.44;;;2.95;91.20
13767;BME280;47980;48.794;9.176;2023-03-15T03:04:52;98097.22;;;2.96;91.53
13767;BME280;47980;48.794;9.176;2023-03-15T03:07:24;98099.66;;;2.87;92.80
13767;BME280;47980;48.794;9.176;2023-03-15T03:09:55;98103.53;;;2.89;93.34
13767;BME280;47980;48.794;9.176;2023-03-15T03:12:27;98110.16;;;2.82;93.25
13767;BME280;47980;48.794;9.176;2023-03-15T03:15:00;98117.53;;;2.75;92.15
13767;BME280;47980;48.794;9.176;2023-03-15T03:17:34;98119.31;;;2.79;93.10
13767;BME280;47980;48.794;9.176;2023-03-15T03:20:09;98127.53;;;2.73;92.23
13767;BME280;47980;48.794;9.176;2023-03-15T03:22:42;98125.38;;;2.75;92.41
13767;BME280;47980;48.794;9.176;2023-03-15T03:25:15;98131.69;;;2.74;92.34
13767;BME280;47980;48.794;9.176;2023-03-15T03:27:47;98135.38;;;2.73;91.69
13767;BME280;47980;48.794;9.176;2023-03-15T03:30:20;98139.56;;;2.74;91.79
13767;BME280;47980;48.794;9.176;2023-03-15T03:32:51;98141.63;;;2.72;91.21
13767;BME280;47980;48.794;9.176;2023-03-15T03:35:23;98144.25;;;2.72;91.47
13767;BME280;47980;48.794;9.176;2023-03-15T03:37:55;98150.03;;;2.69;90.85
13767;BME280;47980;48.794;9.176;2023-03-15T03:40:26;98152.69;;;2.63;92.62
13767;BME280;47980;48.794;9.176;2023-03-15T03:42:58;98162.34;;;2.68;90.91
13767;BME280;47980;48.794;9.176;2023-03-15T03:45:31;98158.72;;;2.64;91.06
13767;BME280;47980;48.794;9.176;2023-03-15T03:48:03;98159.03;;;2.52;89.83
13767;BME280;47980;48.794;9.176;2023-03-15T03:50:34;98173.19;;;2.51;90.49
13767;BME280;47980;48.794;9.176;2023-03-15T03:53:06;98169.09;;;2.30;90.88
13767;BME280;47980;48.794;9.176;2023-03-15T03:55:37;98178.22;;;2.32;90.26
13767;BME280;47980;48.794;9.176;2023-03-15T03:58:09;98172.94;;;2.48;90.21
13767;BME280;47980;48.794;9.176;2023-03-15T04:00:42;98185.25;;;2.47;90.24
13767;BME280;47980;48.794;9.176;2023-03-15T04:03:13;98187.06;;;2.52;90.63
13767;BME280;47980;48.794;9.176;2023-03-15T04:05:45;98198.06;;;2.49;90.05
13767;BME280;47980;48.794;9.176;2023-03-15T04:08:16;98188.66;;;2.48;89.62
13767;BME280;47980;48.794;9.176;2023-03-15T04:10:49;98199.16;;;2.37;90.20
13767;BME280;47980;48.794;9.176;2023-03-15T04:13:21;98215.91;;;2.41;89.58
13767;BME280;47980;48.794;9.176;2023-03-15T04:15:55;98213.31;;;2.36;89.47
13767;BME280;47980;48.794;9.176;2023-03-15T04:18:27;98217.75;;;2.36;89.46
13767;BME280;47980;48.794;9.176;2023-03-15T04:20:58;98217.78;;;2.31;89.68
13767;BME280;47980;48.794;9.176;2023-03-15T04:23:30;98215.16;;;2.31;90.48
13767;BME280;47980;48.794;9.176;2023-03-15T04:26:04;98220.91;;;2.28;89.48
13767;BME280;47980;48.794;9.176;2023-03-15T04:28:36;98225.13;;;2.29;90.13
13767;BME280;47980;48.794;9.176;2023-03-15T04:31:10;98224.06;;;2.25;91.64
13767;BME280;47980;48.794;9.176;2023-03-15T04:33:43;98231.66;;;2.21;91.16
13767;BME280;47980;48.794;9.176;2023-03-15T04:36:15;98225.66;;;2.21;90.56
13767;BME280;47980;48.794;9.176;2023-03-15T04:38:49;98229.56;;;2.23;90.22
13767;BME280;47980;48.794;9.176;2023-03-15T04:41:20;98228.25;;;2.21;88.05
13767;BME280;47980;48.794;9.176;2023-03-15T04:43:56;98234.81;;;2.23;88.62
13767;BME280;47980;48.794;9.176;2023-03-15T04:46:32;98237.44;;;2.23;88.57
13767;BME280;47980;48.794;9.176;2023-03-15T04:49:03;98235.63;;;2.19;87.70
13767;BME280;47980;48.794;9.176;2023-03-15T04:51:35;98236.63;;;2.17;88.69
13767;BME280;47980;48.794;9.176;2023-03-15T04:54:07;98237.16;;;2.30;89.15
13767;BME280;47980;48.794;9.176;2023-03-15T04:56:38;98245.53;;;2.16;87.12
13767;BME280;47980;48.794;9.176;2023-03-15T04:59:11;98235.88;;;2.22;88.22
13767;BME280;47980;48.794;9.176;2023-03-15T05:01:44;98243.72;;;2.22;88.73
13767;BME280;47980;48.794;9.176;2023-03-15T05:04:15;98239.53;;;2.16;88.49
13767;BME280;47980;48.794;9.176;2023-03-15T05:06:47;98242.44;;;2.14;88.57
13767;BME280;47980;48.794;9.176;2023-03-15T05:09:19;98239.53;;;2.16;88.71
13767;BME280;47980;48.794;9.176;2023-03-15T05:11:51;98234.28;;;2.21;89.38
13767;BME280;47980;48.794;9.176;2023-03-15T05:14:23;98242.19;;;2.01;89.92
13767;BME280;47980;48.794;9.176;2023-03-15T05:16:56;98232.50;;;2.01;89.46
13767;BME280;47980;48.794;9.176;2023-03-15T05:19:29;98240.34;;;2.06;89.93
13767;BME280;47980;48.794;9.176;2023-03-15T05:22:03;98245.03;;;2.09;90.56
13767;BME280;47980;48.794;9.176;2023-03-15T05:24:36;98235.34;;;2.15;88.79
13767;BME280;47980;48.794;9.176;2023-03-15T05:27:08;98239.56;;;2.06;88.34
13767;BME280;47980;48.794;9.176;2023-03-15T05:29:41;98236.44;;;2.04;88.81
13767;BME280;47980;48.794;9.176;2023-03-15T05:32:14;98246.09;;;2.03;89.17
13767;BME280;47980;48.794;9.176;2023-03-15T05:34:45;98244.53;;;2.07;89.41
13767;BME280;47980;48.794;9.176;2023-03-15T05:37:17;98239.56;;;2.06;86.73
13767;BME280;47980;48.794;9.176;2023-03-15T05:39:48;98245.53;;;2.16;86.56
13767;BME280;47980;48.794;9.176;2023-03-15T05:42:21;98251.03;;;2.25;85.18
13767;BME280;47980;48.794;9.176;2023-03-15T05:44:55;98243.69;;;2.27;84.79
13767;BME280;47980;48.794;9.176;2023-03-15T05:47:28;98252.56;;;2.36;85.01
13767;BME280;47980;48.794;9.176;2023-03-15T05:50:00;98248.91;;;2.32;85.09
13767;BME280;47980;48.794;9.176;2023-03-15T05:52:32;98258.59;;;2.37;83.83
13767;BME280;47980;48.794;9.176;2023-03-15T05:55:04;98262.72;;;2.43;84.64
13767;BME280;47980;48.794;9.176;2023-03-15T05:57:36;98259.84;;;2.50;84.65
13767;BME280;47980;48.794;9.176;2023-03-15T06:00:08;98264.31;;;2.44;84.33
13767;BME280;47980;48.794;9.176;2023-03-15T06:02:42;98261.13;;;2.62;84.61
13767;BME280;47980;48.794;9.176;2023-03-15T06:05:14;98259.53;;;2.67;84.14
13767;BME280;47980;48.794;9.176;2023-03-15T06:07:45;98255.03;;;2.72;84.48
13767;BME280;47980;48.794;9.176;2023-03-15T06:10:17;98262.84;;;2.87;82.62
13767;BME280;47980;48.794;9.176;2023-03-15T06:12:48;98265.19;;;2.89;83.05
13767;BME280;47980;48.794;9.176;2023-03-15T06:15:21;98279.53;;;3.02;82.73
13767;BME280;47980;48.794;9.176;2023-03-15T06:17:54;98271.06;;;3.15;82.33
13767;BME280;47980;48.794;9.176;2023-03-15T06:20:26;98274.44;;;3.21;82.17
13767;BME280;47980;48.794;9.176;2023-03-15T06:22:57;98277.06;;;3.16;82.40
13767;BME280;47980;48.794;9.176;2023-03-15T06:25:29;98282.78;;;3.23;81.03
13767;BME280;47980;48.794;9.176;2023-03-15T06:28:00;98278.59;;;3.27;80.53
13767;BME280;47980;48.794;9.176;2023-03-15T06:30:32;98286.19;;;3.28;79.10
13767;BME280;47980;48.794;9.176;2023-03-15T06:33:06;98292.38;;;3.43;79.63
13767;BME280;47980;48.794;9.176;2023-03-15T06:35:38;98287.63;;;3.50;78.95
13767;BME280;47980;48.794;9.176;2023-03-15T06:38:10;98292.00;;;3.59;78.26
13767;BME280;47980;48.794;9.176;2023-03-15T06:40:43;98292.19;;;3.68;77.88
13767;BME280;47980;48.794;9.176;2023-03-15T06:43:14;98290.31;;;3.74;79.65
13767;BME280;47980;48.794;9.176;2023-03-15T06:45:48;98292.78;;;3.94;79.18
13767;BME280;47980;48.794;9.176;2023-03-15T06:48:21;98299.56;;;3.95;78.35
13767;BME280;47980;48.794;9.176;2023-03-15T06:50:53;98294.91;;;3.92;75.90
13767;BME280;47980;48.794;9.176;2023-03-15T06:53:25;98298.56;;;4.20;76.17
13767;BME280;47980;48.794;9.176;2023-03-15T06:55:56;98302.44;;;4.52;75.02
13767;BME280;47980;48.794;9.176;2023-03-15T06:58:28;98300.59;;;4.52;74.80
13767;BME280;47980;48.794;9.176;2023-03-15T07:01:00;98307.03;;;4.41;74.06
13767;BME280;47980;48.794;9.176;2023-03-15T07:03:33;98295.97;;;4.44;74.07
13767;BME280;47980;48.794;9.176;2023-03-15T07:06:04;98301.84;;;4.36;72.85
13767;BME280;47980;48.794;9.176;2023-03-15T07:08:36;98302.09;;;4.34;73.07
13767;BME280;47980;48.794;9.176;2023-03-15T07:11:08;98303.75;;;4.54;72.50
13767;BME280;47980;48.794;9.176;2023-03-15T07:13:39;98313.72;;;4.52;71.01
13767;BME280;47980;48.794;9.176;2023-03-15T07:16:11;98309.56;;;4.51;70.73
13767;BME280;47980;48.794;9.176;2023-03-15T07:18:44;98308.38;;;4.63;71.41
13767;BME280;47980;48.794;9.176;2023-03-15T07:21:16;98303.06;;;4.68;70.33
13767;BME280;47980;48.794;9.176;2023-03-15T07:23:47;98310.91;;;4.73;69.59
13767;BME280;47980;48.794;9.176;2023-03-15T07:26:19;98321.63;;;4.76;69.38
13767;BME280;47980;48.794;9.176;2023-03-15T07:28:51;98318.22;;;4.76;69.03
13767;BME280;47980;48.794;9.176;2023-03-15T07:31:23;98330.50;;;4.80;68.26
13767;BME280;47980;48.794;9.176;2023-03-15T07:33:56;98325.59;;;4.74;68.83
13767;BME280;47980;48.794;9.176;2023-03-15T07:36:27;98328.44;;;4.77;67.52
13767;BME280;47980;48.794;9.176;2023-03-15T07:38:59;98340.38;;;5.13;68.10
13767;BME280;47980;48.794;9.176;2023-03-15T07:41:31;98320.00;;;5.23;67.18
13767;BME280;47980;48.794;9.176;2023-03-15T07:44:03;98337.31;;;5.24;67.61
13767;BME280;47980;48.794;9.176;2023-03-15T07:46:34;98341.72;;;5.10;67.72
13767;BME280;47980;48.794;9.176;2023-03-15T07:49:08;98340.09;;;5.14;67.78
13767;BME280;47980;48.794;9.176;2023-03-15T07:51:40;98335.13;;;5.13;66.02
13767;BME280;47980;48.794;9.176;2023-03-15T07:54:11;98341.69;;;5.34;66.85
13767;BME280;47980;48.794;9.176;2023-03-15T07:56:43;98328.88;;;5.46;66.95
13767;BME280;47980;48.794;9.176;2023-03-15T07:59:14;98336.75;;;5.46;67.36
13767;BME280;47980;48.794;9.176;2023-03-15T08:01:46;98332.41;;;4.99;67.00
13767;BME280;47980;48.794;9.176;2023-03-15T08:04:19;98330.19;;;5.06;67.91
13767;BME280;47980;48.794;9.176;2023-03-15T08:06:50;98337.69;;;4.94;67.85
13767;BME280;47980;48.794;9.176;2023-03-15T08:09:22;98334.25;;;4.74;68.75
13767;BME280;47980;48.794;9.176;2023-03-15T08:11:54;98347.22;;;4.90;69.08
13767;BME280;47980;48.794;9.176;2023-03-15T08:14:26;98347.13;;;5.19;69.57
13767;BME280;47980;48.794;9.176;2023-03-15T08:16:58;98339.25;;;5.57;67.92
13767;BME280;47980;48.794;9.176;2023-03-15T08:19:31;98342.09;;;5.60;65.81
13767;BME280;47980;48.794;9.176;2023-03-15T08:22:03;98341.41;;;6.06;66.64
13767;BME280;47980;48.794;9.176;2023-03-15T08:24:35;98346.50;;;6.16;65.38
13767;BME280;47980;48.794;9.176;2023-03-15T08:27:07;98349.94;;;6.17;63.21
13767;BME280;47980;48.794;9.176;2023-03-15T08:29:39;98348.09;;;6.31;64.14
13767;BME280;47980;48.794;9.176;2023-03-15T08:32:11;98347.69;;;6.10;60.16
13767;BME280;47980;48.794;9.176;2023-03-15T08:34:44;98363.34;;;6.34;62.56
13767;BME280;47980;48.794;9.176;2023-03-15T08:37:15;98354.22;;;6.73;60.02
13767;BME280;47980;48.794;9.176;2023-03-15T08:39:47;98357.81;;;6.63;61.04
13767;BME280;47980;48.794;9.176;2023-03-15T08:42:18;98356.47;;;6.80;61.72
13767;BME280;47980;48.794;9.176;2023-03-15T08:44:50;98361.06;;;7.02;58.62
13767;BME280;47980;48.794;9.176;2023-03-15T08:47:23;98359.31;;;6.83;58.90
13767;BME280;47980;48.794;9.176;2023-03-15T08:49:55;98348.72;;;7.11;59.88
13767;BME280;47980;48.794;9.176;2023-03-15T08:52:27;98371.28;;;7.03;57.78
13767;BME280;47980;48.794;9.176;2023-03-15T08:54:59;98368.97;;;7.15;57.85
13767;BME280;47980;48.794;9.176;2023-03-15T08:57:31;98350.19;;;7.03;57.75
13767;BME280;47980;48.794;9.176;2023-03-15T09:00:04;98360.47;;;6.91;58.17
13767;BME280;47980;48.794;9.176;2023-03-15T09:02:38;98367.50;;;6.95;56.86
13767;BME280;47980;48.794;9.176;2023-03-15T09:05:13;98360.25;;;7.65;56.64
13767;BME280;47980;48.794;9.176;2023-03-15T09:07:46;98373.63;;;7.32;57.80
13767;BME280;47980;48.794;9.176;2023-03-15T09:10:18;98376.59;;;7.53;55.89
13767;BME280;47980;48.794;9.176;2023-03-15T09:12:51;98386.00;;;7.59;56.91
13767;BME280;47980;48.794;9.176;2023-03-15T09:15:23;98365.66;;;8.05;54.38
13767;BME280;47980;48.794;9.176;2023-03-15T09:17:55;98382.34;;;7.91;55.09
13767;BME280;47980;48.794;9.176;2023-03-15T09:20:29;98383.06;;;8.06;55.61
13767;BME280;47980;48.794;9.176;2023-03-15T09:23:01;98384.16;;;8.27;55.44
13767;BME280;47980;48.794;9.176;2023-03-15T09:25:32;98383.50;;;8.44;54.39
13767;BME280;47980;48.794;9.176;2023-03-15T09:28:07;98383.75;;;9.05;52.12
13767;BME280;47980;48.794;9.176;2023-03-15T09:30:41;98383.09;;;8.28;52.02
13767;BME280;47980;48.794;9.176;2023-03-15T09:33:13;98388.44;;;8.14;52.96
13767;BME280;47980;48.794;9.176;2023-03-15T09:35:57;98390.84;;;8.25;51.62
13767;BME280;47980;48.794;9.176;2023-03-15T09:38:28;98397.44;;;8.13;51.92
13767;BME280;47980;48.794;9.176;2023-03-15T09:41:00;98388.00;;;8.21;52.49
13767;BME280;47980;48.794;9.176;2023-03-15T09:43:43;98400.41;;;8.20;53.46
13767;BME280;47980;48.794;9.176;2023-03-15T09:46:26;98394.59;;;7.87;54.02
13767;BME280;47980;48.794;9.176;2023-03-15T09:49:03;98401.13;;;8.35;52.06
13767;BME280;47980;48.794;9.176;2023-03-15T09:51:49;98396.84;;;7.80;53.54
13767;BME280;47980;48.794;9.176;2023-03-15T09:54:26;98402.56;;;7.74;53.24
13767;BME280;47980;48.794;9.176;2023-03-15T09:57:03;98410.03;;;8.16;53.74
13767;BME280;47980;48.794;9.176;2023-03-15T09:59:40;98407.19;;;7.54;55.15
13767;BME280;47980;48.794;9.176;2023-03-15T10:02:17;98403.63;;;7.72;53.61
13767;BME280;47980;48.794;9.176;2023-03-15T10:04:55;98396.81;;;7.94;53.83
13767;BME280;47980;48.794;9.176;2023-03-15T10:07:29;98402.47;;;8.24;53.42
13767;BME280;47980;48.794;9.176;2023-03-15T10:10:07;98389.22;;;7.92;52.71
13767;BME280;47980;48.794;9.176;2023-03-15T10:12:40;98397.84;;;8.29;51.14
13767;BME280;47980;48.794;9.176;2023-03-15T10:15:28;98397.25;;;8.32;52.75
13767;BME280;47980;48.794;9.176;2023-03-15T10:18:16;98387.00;;;8.62;52.18
13767;BME280;47980;48.794;9.176;2023-03-15T10:21:00;98385.81;;;9.08;50.60
13767;BME280;47980;48.794;9.176;2023-03-15T10:23:43;98388.72;;;8.98;50.61
13767;BME280;47980;48.794;9.176;2023-03-15T10:26:20;98391.44;;;8.75;50.50
13767;BME280;47980;48.794;9.176;2023-03-15T10:28:53;98389.47;;;8.50;51.80
13767;BME280;47980;48.794;9.176;2023-03-15T10:31:30;98379.28;;;7.98;51.45
13767;BME280;47980;48.794;9.176;2023-03-15T10:34:05;98382.53;;;7.95;51.14
13767;BME280;47980;48.794;9.176;2023-03-15T10:36:36;98388.34;;;8.06;49.87
13767;BME280;47980;48.794;9.176;2023-03-15T10:39:15;98388.22;;;8.96;47.72
13767;BME280;47980;48.794;9.176;2023-03-15T10:41:49;98382.66;;;8.97;48.28
13767;BME280;47980;48.794;9.176;2023-03-15T10:44:23;98383.22;;;9.34;47.95
13767;BME280;47980;48.794;9.176;2023-03-15T10:47:02;98391.47;;;9.41;48.92
13767;BME280;47980;48.794;9.176;2023-03-15T10:49:37;98366.41;;;9.91;46.39
13767;BME280;47980;48.794;9.176;2023-03-15T10:52:28;98378.38;;;10.05;46.62
13767;BME280;47980;48.794;9.176;2023-03-15T10:55:10;98382.78;;;10.10;48.61
13767;BME280;47980;48.794;9.176;2023-03-15T10:57:51;98372.63;;;9.69;48.97
13767;BME280;47980;48.794;9.176;2023-03-15T11:00:27;98384.09;;;9.12;49.79
13767;BME280;47980;48.794;9.176;2023-03-15T11:03:02;98383.44;;;8.66;49.36
13767;BME280;47980;48.794;9.176;2023-03-15T11:05:41;98392.69;;;8.78;49.18
13767;BME280;47980;48.794;9.176;2023-03-15T11:08:14;98386.88;;;8.67;49.81
13767;BME280;47980;48.794;9.176;2023-03-15T11:10:54;98386.28;;;8.39;51.42
13767;BME280;47980;48.794;9.176;2023-03-15T11:13:28;98380.69;;;8.18;51.95
13767;BME280;47980;48.794;9.176;2023-03-15T11:16:03;98381.47;;;7.96;52.89
13767;BME280;47980;48.794;9.176;2023-03-15T11:18:42;98378.16;;;8.35;52.99
13767;BME280;47980;48.794;9.176;2023-03-15T11:21:18;98372.94;;;8.44;52.10
13767;BME280;47980;48.794;9.176;2023-03-15T11:23:53;98379.00;;;8.22;53.82
13767;BME280;47980;48.794;9.176;2023-03-15T11:26:28;98375.44;;;8.04;54.04
13767;BME280;47980;48.794;9.176;2023-03-15T11:29:06;98372.09;;;8.12;53.45
13767;BME280;47980;48.794;9.176;2023-03-15T11:31:44;98368.75;;;8.83;51.99
13767;BME280;47980;48.794;9.176;2023-03-15T11:34:22;98376.81;;;8.24;51.12
13767;BME280;47980;48.794;9.176;2023-03-15T11:36:59;98376.88;;;8.55;52.01
13767;BME280;47980;48.794;9.176;2023-03-15T11:39:37;98371.22;;;8.48;50.97
13767;BME280;47980;48.794;9.176;2023-03-15T11:42:20;98377.72;;;8.73;51.80
13767;BME280;47980;48.794;9.176;2023-03-15T11:44:56;98377.22;;;9.02;51.12
13767;BME280;47980;48.794;9.176;2023-03-15T11:47:36;98365.69;;;9.07;47.57
13767;BME280;47980;48.794;9.176;2023-03-15T11:50:13;98369.63;;;9.18;46.53
13767;BME280;47980;48.794;9.176;2023-03-15T11:52:47;98371.00;;;8.67;47.11
13767;BME280;47980;48.794;9.176;2023-03-15T11:55:23;98376.19;;;8.81;48.14
13767;BME280;47980;48.794;9.176;2023-03-15T11:58:26;98377.00;;;8.28;48.43
13767;BME280;47980;48.794;9.176;2023-03-15T12:01:02;98381.03;;;8.79;48.68
13767;BME280;47980;48.794;9.176;2023-03-15T12:03:37;98390.53;;;8.80;46.56
13767;BME280;47980;48.794;9.176;2023-03-15T12:09:44;98380.56;;;9.34;46.92
13767;BME280;47980;48.794;9.176;2023-03-15T12:12:42;98388.91;;;8.70;46.98
13767;BME280;47980;48.794;9.176;2023-03-15T12:15:43;98381.72;;;8.62;48.84
13767;BME280;47980;48.794;9.176;2023-03-15T12:18:20;98384.53;;;8.65;47.53
13767;BME280;47980;48.794;9.176;2023-03-15T12:21:06;98377.13;;;8.76;48.29
13767;BME280;47980;48.794;9.176;2023-03-15T12:23:46;98376.16;;;9.21;48.09
13767;BME280;47980;48.794;9.176;2023-03-15T12:26:29;98383.72;;;9.71;46.15
13767;BME280;47980;48.794;9.176;2023-03-15T12:29:06;98377.47;;;9.40;47.04
13767;BME280;47980;48.794;9.176;2023-03-15T12:31:49;98376.69;;;9.57;47.20
13767;BME280;47980;48.794;9.176;2023-03-15T12:34:28;98379.34;;;9.75;47.73
13767;BME280;47980;48.794;9.176;2023-03-15T12:37:04;98373.13;;;9.71;48.14
13767;BME280;47980;48.794;9.176;2023-03-15T12:39:39;98374.81;;;9.49;48.24
13767;BME280;47980;48.794;9.176;2023-03-15T12:45:54;98378.50;;;9.22;49.09
13767;BME280;47980;48.794;9.176;2023-03-15T12:48:27;98379.63;;;9.38;49.07
13767;BME280;47980;48.794;9.176;2023-03-15T12:51:10;98377.78;;;9.56;48.22
13767;BME280;47980;48.794;9.176;2023-03-15T12:53:45;98378.38;;;9.36;48.66
13767;BME280;47980;48.794;9.176;2023-03-15T12:56:40;98394.44;;;9.57;49.53
13767;BME280;47980;48.794;9.176;2023-03-15T12:59:27;98403.13;;;9.23;51.52
13767;BME280;47980;48.794;9.176;2023-03-15T13:02:07;98401.50;;;9.04;54.77
13767;BME280;47980;48.794;9.176;2023-03-15T13:04:48;98414.06;;;8.90;57.87
13767;BME280;47980;48.794;9.176;2023-03-15T13:07:23;98414.34;;;8.35;60.26
13767;BME280;47980;48.794;9.176;2023-03-15T13:10:16;98416.59;;;7.60;62.31
13767;BME280;47980;48.794;9.176;2023-03-15T13:12:54;98409.41;;;7.75;62.76
13767;BME280;47980;48.794;9.176;2023-03-15T13:15:34;98403.56;;;8.23;63.07
13767;BME280;47980;48.794;9.176;2023-03-15T13:18:15;98399.03;;;8.46;60.88
13767;BME280;47980;48.794;9.176;2023-03-15T13:21:04;98402.47;;;8.77;60.48
13767;BME280;47980;48.794;9.176;2023-03-15T13:23:43;98394.97;;;8.71;60.12
13767;BME280;47980;48.794;9.176;2023-03-15T13:26:28;98396.03;;;8.16;61.56
13767;BME280;47980;48.794;9.176;2023-03-15T13:29:10;98405.09;;;8.01;62.35
13767;BME280;47980;48.794;9.176;2023-03-15T13:31:44;98404.03;;;8.02;61.40
13767;BME280;47980;48.794;9.176;2023-03-15T13:34:20;98410.56;;;8.05;63.76
13767;BME280;47980;48.794;9.176;2023-03-15T13:36:55;98402.63;;;8.27;64.63
13767;BME280;47980;48.794;9.176;2023-03-15T13:39:29;98403.00;;;8.57;64.49
13767;BME280;47980;48.794;9.176;2023-03-15T13:42:03;98410.97;;;8.20;62.26
13767;BME280;47980;48.794;9.176;2023-03-15T13:44:34;98421.06;;;8.63;60.78
13767;BME280;47980;48.794;9.176;2023-03-15T13:47:06;98414.72;;;8.19;61.98
13767;BME280;47980;48.794;9.176;2023-03-15T13:49:39;98414.84;;;7.92;62.06
13767;BME280;47980;48.794;9.176;2023-03-15T13:52:11;98423.50;;;7.70;63.66
13767;BME280;47980;48.794;9.176;2023-03-15T13:54:44;98432.34;;;7.10;65.08